Time;durP1;ratioP1;P1;durP2;ratioP2;P2;SDS_P1;SDS_P2;PMS_P1;PMS_P2;Temp;Humidity;BMP_temperature;BMP_pressure;BME280_temperature;BME280_humidity;BME280_pressure;Samples;Min_cycle;Max_cycle;Signal;HPM_P1;HPM_P2
2021/07/22 00:02:15;;;;;;;2.30;1.88;;;;;;;;;;5001071;28;20034;-74
2021/07/22 00:04:40;;;;;;;2.08;1.73;;;;;;;;;;5006003;28;20408;-74
2021/07/22 00:07:06;;;;;;;2.13;1.70;;;;;;;;;;4999121;28;20106;-74
2021/07/22 00:09:31;;;;;;;2.38;1.90;;;;;;;;;;4998088;28;20388;-74
2021/07/22 00:11:57;;;;;;;2.03;1.70;;;;;;;;;;4998041;28;20464;-74
2021/07/22 00:14:23;;;;;;;2.58;1.80;;;;;;;;;;5010002;28;20042;-74
2021/07/22 00:16:50;;;;;;;2.58;1.90;;;;;;;;;;5010707;28;20053;-74
2021/07/22 00:19:16;;;;;;;2.60;2.00;;;;;;;;;;5004911;28;20029;-74
2021/07/22 00:21:41;;;;;;;2.35;1.80;;;;;;;;;;4999716;28;20475;-73
2021/07/22 00:24:06;;;;;;;2.92;1.90;;;;;;;;;;5002284;28;20041;-74
2021/07/22 00:26:32;;;;;;;2.38;1.80;;;;;;;;;;4999450;28;20084;-73
2021/07/22 00:28:57;;;;;;;3.33;1.80;;;;;;;;;;5011742;28;20049;-73
2021/07/22 00:31:23;;;;;;;2.70;1.90;;;;;;;;;;5009701;28;20397;-75
2021/07/22 00:33:48;;;;;;;2.00;1.80;;;;;;;;;;5003516;28;20046;-76
2021/07/22 00:36:16;;;;;;;2.13;1.70;;;;;;;;;;5002403;28;20018;-74
2021/07/22 00:38:42;;;;;;;2.30;1.85;;;;;;;;;;4998517;28;20437;-74
2021/07/22 00:41:11;;;;;;;1.75;1.65;;;;;;;;;;5002155;28;20072;-74
2021/07/22 00:43:40;;;;;;;2.28;1.80;;;;;;;;;;5001368;28;20030;-76
2021/07/22 00:46:06;;;;;;;2.13;1.70;;;;;;;;;;4997890;28;20026;-74
2021/07/22 00:48:31;;;;;;;1.70;1.60;;;;;;;;;;5006138;28;20034;-74
2021/07/22 00:50:58;;;;;;;2.30;1.90;;;;;;;;;;4982268;28;20523;-73
2021/07/22 00:53:23;;;;;;;1.90;1.70;;;;;;;;;;5001099;28;20065;-74
2021/07/22 00:55:53;;;;;;;2.47;1.83;;;;;;;;;;5001912;28;20030;-73
2021/07/22 00:58:19;;;;;;;2.03;1.77;;;;;;;;;;4999441;28;20038;-74
2021/07/22 01:00:47;;;;;;;2.42;2.00;;;;;;;;;;5004178;28;20034;-74
2021/07/22 01:03:13;;;;;;;2.33;1.90;;;;;;;;;;4990945;28;20088;-74
2021/07/22 01:05:38;;;;;;;2.33;1.80;;;;;;;;;;5004881;28;20042;-73
2021/07/22 01:08:04;;;;;;;2.15;1.70;;;;;;;;;;5004730;28;20022;-73
2021/07/22 01:10:30;;;;;;;1.90;1.70;;;;;;;;;;4999139;28;20524;-75
2021/07/22 01:12:57;;;;;;;2.03;1.70;;;;;;;;;;4997976;28;20373;-73
2021/07/22 01:15:22;;;;;;;1.83;1.63;;;;;;;;;;5005722;28;20260;-76
2021/07/22 01:17:49;;;;;;;2.53;1.83;;;;;;;;;;4998870;28;20079;-75
2021/07/22 01:20:18;;;;;;;2.58;1.98;;;;;;;;;;4997340;28;20465;-76
2021/07/22 01:22:47;;;;;;;2.70;1.90;;;;;;;;;;4999250;28;20133;-73
2021/07/22 01:25:13;;;;;;;2.38;1.88;;;;;;;;;;4988009;28;20087;-73
2021/07/22 01:27:39;;;;;;;2.40;1.80;;;;;;;;;;4999218;28;20173;-74
2021/07/22 01:30:09;;;;;;;2.40;1.90;;;;;;;;;;4988028;28;20034;-75
2021/07/22 01:32:37;;;;;;;2.45;1.90;;;;;;;;;;4999040;28;20034;-74
2021/07/22 01:35:03;;;;;;;2.45;1.90;;;;;;;;;;5002856;28;20029;-74
2021/07/22 01:37:29;;;;;;;2.22;1.90;;;;;;;;;;5005670;28;20113;-74
2021/07/22 01:39:56;;;;;;;2.50;1.88;;;;;;;;;;4997052;28;20561;-76
2021/07/22 01:42:21;;;;;;;2.40;1.90;;;;;;;;;;4989604;28;20179;-75
2021/07/22 01:44:48;;;;;;;2.17;1.83;;;;;;;;;;4999916;28;20292;-74
2021/07/22 01:47:16;;;;;;;2.08;1.80;;;;;;;;;;4997093;28;20381;-75
2021/07/22 01:49:41;;;;;;;2.30;1.85;;;;;;;;;;4999630;28;20049;-73
2021/07/22 01:52:10;;;;;;;2.00;1.80;;;;;;;;;;4982119;28;20443;-74
2021/07/22 01:54:41;;;;;;;2.50;1.90;;;;;;;;;;5003385;28;20037;-74
2021/07/22 01:57:06;;;;;;;2.30;1.90;;;;;;;;;;4991186;28;20080;-74
2021/07/22 01:59:37;;;;;;;2.33;1.90;;;;;;;;;;5007396;28;20077;-73
2021/07/22 02:02:06;;;;;;;2.47;1.90;;;;;;;;;;5006671;28;20523;-75
2021/07/22 02:04:34;;;;;;;3.03;2.20;;;;;;;;;;4990554;28;20117;-74
2021/07/22 02:06:59;;;;;;;2.72;1.80;;;;;;;;;;5004969;28;20130;-77
2021/07/22 02:09:26;;;;;;;2.33;1.80;;;;;;;;;;4987432;28;20037;-73
2021/07/22 02:11:52;;;;;;;2.85;2.03;;;;;;;;;;4996233;28;20026;-74
2021/07/22 02:14:18;;;;;;;2.90;2.00;;;;;;;;;;4987516;28;20381;-73
2021/07/22 02:16:44;;;;;;;1.90;1.70;;;;;;;;;;4998185;28;20037;-73
2021/07/22 02:19:11;;;;;;;2.63;2.10;;;;;;;;;;5004847;28;20030;-73
2021/07/22 02:21:37;;;;;;;1.95;1.70;;;;;;;;;;4992342;28;20116;-73
2021/07/22 02:24:06;;;;;;;3.28;2.17;;;;;;;;;;5004360;28;20037;-76
2021/07/22 02:26:41;;;;;;;2.45;2.00;;;;;;;;;;5004262;28;20692;-73
2021/07/22 02:29:06;;;;;;;2.30;1.95;;;;;;;;;;5003394;28;20029;-73
2021/07/22 02:31:33;;;;;;;2.30;1.90;;;;;;;;;;4996563;28;20485;-76
2021/07/22 02:33:59;;;;;;;2.00;1.80;;;;;;;;;;5000366;28;20060;-74
2021/07/22 02:36:24;;;;;;;2.40;2.00;;;;;;;;;;4997995;28;20123;-75
2021/07/22 02:39:15;;;;;;;3.00;2.10;;;;;;;;;;4994202;28;20026;-74
2021/07/22 02:41:42;;;;;;;3.20;2.10;;;;;;;;;;4993525;28;20030;-73
2021/07/22 02:44:07;;;;;;;2.40;2.00;;;;;;;;;;4997745;28;20345;-73
2021/07/22 02:46:39;;;;;;;2.90;2.20;;;;;;;;;;5000137;28;20030;-75
2021/07/22 02:49:05;;;;;;;2.85;2.17;;;;;;;;;;4987052;28;20140;-74
2021/07/22 02:51:36;;;;;;;2.20;1.90;;;;;;;;;;4996242;28;20057;-75
2021/07/22 02:54:07;;;;;;;3.75;1.90;;;;;;;;;;5008297;28;20038;-72
2021/07/22 02:56:32;;;;;;;2.58;1.92;;;;;;;;;;4994488;28;20040;-72
2021/07/22 02:59:02;;;;;;;2.10;1.80;;;;;;;;;;4994736;28;20076;-74
2021/07/22 03:01:31;;;;;;;2.50;1.90;;;;;;;;;;5003839;28;20121;-73
2021/07/22 03:03:57;;;;;;;2.75;2.15;;;;;;;;;;4985496;28;20082;-73
2021/07/22 03:06:26;;;;;;;2.17;1.80;;;;;;;;;;4998001;28;20525;-75
2021/07/22 03:08:56;;;;;;;2.90;2.10;;;;;;;;;;5000471;28;20033;-74
2021/07/22 03:11:25;;;;;;;3.53;2.10;;;;;;;;;;4999223;28;20034;-74
2021/07/22 03:13:58;;;;;;;2.38;1.92;;;;;;;;;;5004711;28;20065;-74
2021/07/22 03:16:24;;;;;;;2.80;1.92;;;;;;;;;;5008488;28;20041;-74
2021/07/22 03:19:10;;;;;;;2.42;2.00;;;;;;;;;;5000238;28;20030;-73
2021/07/22 03:21:58;;;;;;;3.00;2.00;;;;;;;;;;4993456;28;20631;-74
2021/07/22 03:24:56;;;;;;;2.28;1.90;;;;;;;;;;4970562;28;20116;-74
2021/07/22 03:27:41;;;;;;;4.00;2.33;;;;;;;;;;4992797;28;20396;-73
2021/07/22 03:30:17;;;;;;;2.92;2.00;;;;;;;;;;5016312;28;20030;-74
2021/07/22 03:32:53;;;;;;;2.25;2.00;;;;;;;;;;5007768;28;20531;-74
2021/07/22 03:35:24;;;;;;;3.20;2.10;;;;;;;;;;5002303;28;20061;-74
2021/07/22 03:37:50;;;;;;;2.92;2.13;;;;;;;;;;5008443;28;20101;-75
2021/07/22 03:40:22;;;;;;;3.53;2.38;;;;;;;;;;5000311;28;20097;-74
2021/07/22 03:42:49;;;;;;;3.33;2.30;;;;;;;;;;5000202;28;20058;-76
2021/07/22 03:45:18;;;;;;;2.67;2.20;;;;;;;;;;4998158;28;20022;-74
2021/07/22 03:47:48;;;;;;;2.80;2.00;;;;;;;;;;4990869;28;20034;-75
2021/07/22 03:50:14;;;;;;;2.60;2.00;;;;;;;;;;4997464;28;20104;-74
2021/07/22 03:52:41;;;;;;;2.25;2.00;;;;;;;;;;5003416;28;20136;-75
2021/07/22 03:55:07;;;;;;;2.75;2.00;;;;;;;;;;5006439;28;20073;-75
2021/07/22 03:57:46;;;;;;;2.67;1.98;;;;;;;;;;5000980;28;20511;-74
2021/07/22 04:00:13;;;;;;;2.70;1.80;;;;;;;;;;4999371;28;20022;-75
2021/07/22 04:02:41;;;;;;;2.40;2.00;;;;;;;;;;4999378;28;20125;-76
2021/07/22 04:05:09;;;;;;;2.50;2.00;;;;;;;;;;4996764;28;20043;-76
2021/07/22 04:07:35;;;;;;;2.40;1.90;;;;;;;;;;5006806;28;20121;-76
2021/07/22 04:10:26;;;;;;;2.10;1.90;;;;;;;;;;4992090;28;20038;-74
2021/07/22 04:13:09;;;;;;;2.58;2.00;;;;;;;;;;5003544;28;20738;-74
2021/07/22 04:16:03;;;;;;;2.25;1.92;;;;;;;;;;4983717;28;20046;-76
2021/07/22 04:19:02;;;;;;;3.15;2.08;;;;;;;;;;5001880;28;20114;-75
2021/07/22 04:22:02;;;;;;;2.35;2.00;;;;;;;;;;4990525;28;20121;-75
2021/07/22 04:24:42;;;;;;;2.80;2.10;;;;;;;;;;4999510;28;20061;-75
2021/07/22 04:27:27;;;;;;;2.38;2.00;;;;;;;;;;5000414;28;20030;-75
2021/07/22 04:30:03;;;;;;;2.42;2.10;;;;;;;;;;4996679;28;20038;-75
2021/07/22 04:32:37;;;;;;;2.45;2.03;;;;;;;;;;4998704;28;20081;-76
2021/07/22 04:35:17;;;;;;;2.00;1.80;;;;;;;;;;5006730;28;20034;-74
2021/07/22 04:38:05;;;;;;;2.30;1.90;;;;;;;;;;5001049;28;20037;-74
2021/07/22 04:40:53;;;;;;;2.03;1.80;;;;;;;;;;5001157;28;20130;-75
2021/07/22 04:43:41;;;;;;;3.33;2.22;;;;;;;;;;4988244;28;20353;-75
2021/07/22 04:46:29;;;;;;;2.28;1.98;;;;;;;;;;4999773;28;20429;-74
2021/07/22 04:48:59;;;;;;;3.65;2.10;;;;;;;;;;5001510;28;20030;-74
2021/07/22 04:51:43;;;;;;;2.58;1.90;;;;;;;;;;4997776;28;20026;-74
2021/07/22 04:54:19;;;;;;;3.55;2.00;;;;;;;;;;4997485;28;20068;-74
2021/07/22 04:56:45;;;;;;;2.60;2.10;;;;;;;;;;5006379;28;20026;-74
2021/07/22 04:59:15;;;;;;;2.50;2.00;;;;;;;;;;5000594;28;20038;-73
2021/07/22 05:01:42;;;;;;;2.85;2.15;;;;;;;;;;5010184;28;20459;-74
2021/07/22 05:04:15;;;;;;;2.65;2.10;;;;;;;;;;4997383;28;20062;-75
2021/07/22 05:06:56;;;;;;;2.50;1.98;;;;;;;;;;4984330;28;20488;-75
2021/07/22 05:09:41;;;;;;;3.08;2.20;;;;;;;;;;5015803;28;20580;-75
2021/07/22 05:12:29;;;;;;;2.53;1.92;;;;;;;;;;5004816;28;20033;-75
2021/07/22 05:15:23;;;;;;;3.05;2.15;;;;;;;;;;5005320;28;20038;-75
2021/07/22 05:18:07;;;;;;;2.67;2.00;;;;;;;;;;4989288;28;20034;-75
2021/07/22 05:20:51;;;;;;;2.65;2.10;;;;;;;;;;5003196;28;20068;-74
2021/07/22 05:23:23;;;;;;;2.80;2.00;;;;;;;;;;4987903;28;20027;-74
2021/07/22 05:26:16;;;;;;;2.75;2.00;;;;;;;;;;5001970;28;20117;-74
2021/07/22 05:28:52;;;;;;;2.40;2.00;;;;;;;;;;5014002;28;20030;-74
2021/07/22 05:31:43;;;;;;;3.17;1.95;;;;;;;;;;5005150;28;20107;-75
2021/07/22 05:34:17;;;;;;;2.50;2.00;;;;;;;;;;4995878;28;20041;-75
2021/07/22 05:36:50;;;;;;;2.40;1.88;;;;;;;;;;4994505;28;20022;-74
2021/07/22 05:39:22;;;;;;;1.80;1.70;;;;;;;;;;4998404;28;20018;-74
2021/07/22 05:41:48;;;;;;;2.70;2.10;;;;;;;;;;4999346;28;20037;-74
2021/07/22 05:44:13;;;;;;;2.25;1.90;;;;;;;;;;4996552;28;20032;-75
2021/07/22 05:46:38;;;;;;;2.83;1.95;;;;;;;;;;4994786;28;20512;-74
2021/07/22 05:49:06;;;;;;;3.08;2.00;;;;;;;;;;5004271;28;20543;-73
2021/07/22 05:51:32;;;;;;;2.92;2.20;;;;;;;;;;5004817;28;20014;-73
2021/07/22 05:53:58;;;;;;;2.38;1.90;;;;;;;;;;4992448;28;20049;-74
2021/07/22 05:56:23;;;;;;;2.58;1.77;;;;;;;;;;5000941;28;20037;-74
2021/07/22 05:58:51;;;;;;;3.97;2.00;;;;;;;;;;4995431;28;20034;-75
2021/07/22 06:01:18;;;;;;;4.63;2.20;;;;;;;;;;4984873;28;20064;-73
2021/07/22 06:03:43;;;;;;;3.40;2.10;;;;;;;;;;5001149;28;20038;-73
2021/07/22 06:06:11;;;;;;;2.50;1.92;;;;;;;;;;5003244;28;20472;-74
2021/07/22 06:08:37;;;;;;;2.13;1.80;;;;;;;;;;5008684;28;20037;-74
2021/07/22 06:11:06;;;;;;;2.35;1.90;;;;;;;;;;5000675;28;20499;-74
2021/07/22 06:13:33;;;;;;;2.63;1.90;;;;;;;;;;5004441;28;20105;-73
2021/07/22 06:16:01;;;;;;;3.67;2.00;;;;;;;;;;4998229;28;20488;-78
2021/07/22 06:18:26;;;;;;;2.00;1.73;;;;;;;;;;4997700;28;20104;-76
2021/07/22 06:20:54;;;;;;;2.72;2.00;;;;;;;;;;4979551;28;20041;-76
2021/07/22 06:23:20;;;;;;;3.00;2.20;;;;;;;;;;4994847;28;20034;-75
2021/07/22 06:25:46;;;;;;;2.70;2.00;;;;;;;;;;5001931;28;20559;-75
2021/07/22 06:28:11;;;;;;;2.38;1.90;;;;;;;;;;4997263;28;20026;-75
2021/07/22 06:30:36;;;;;;;2.22;1.90;;;;;;;;;;4992293;28;20026;-76
2021/07/22 06:33:02;;;;;;;3.70;1.90;;;;;;;;;;5005062;28;20065;-75
2021/07/22 06:35:27;;;;;;;1.90;1.70;;;;;;;;;;5004865;28;20083;-75
2021/07/22 06:37:53;;;;;;;2.65;1.80;;;;;;;;;;4990427;28;20057;-75
2021/07/22 06:40:25;;;;;;;2.90;2.00;;;;;;;;;;4997655;28;20022;-76
2021/07/22 06:42:50;;;;;;;2.00;1.60;;;;;;;;;;5002670;28;20030;-76
2021/07/22 06:45:15;;;;;;;1.70;1.60;;;;;;;;;;4999555;28;20157;-75
2021/07/22 06:47:41;;;;;;;2.05;1.80;;;;;;;;;;4995809;28;20074;-76
2021/07/22 06:50:08;;;;;;;2.03;1.70;;;;;;;;;;5008899;28;20042;-76
2021/07/22 06:52:39;;;;;;;2.67;1.83;;;;;;;;;;4985687;28;20116;-76
2021/07/22 06:55:05;;;;;;;2.58;1.85;;;;;;;;;;4998716;28;20049;-76
2021/07/22 06:57:30;;;;;;;2.35;1.90;;;;;;;;;;5004761;28;20026;-76
2021/07/22 06:59:56;;;;;;;2.70;1.92;;;;;;;;;;4982088;28;20050;-75
2021/07/22 07:02:21;;;;;;;2.63;1.92;;;;;;;;;;4994961;28;20481;-76
2021/07/22 07:04:46;;;;;;;1.90;1.65;;;;;;;;;;4994400;28;20044;-75
2021/07/22 07:07:12;;;;;;;2.35;2.00;;;;;;;;;;5001727;28;20153;-75
2021/07/22 07:09:37;;;;;;;1.95;1.75;;;;;;;;;;4995961;28;20058;-75
2021/07/22 07:12:03;;;;;;;2.55;1.65;;;;;;;;;;4980525;28;20112;-75
2021/07/22 07:14:31;;;;;;;2.97;2.00;;;;;;;;;;5019781;28;20487;-75
2021/07/22 07:16:56;;;;;;;3.85;1.60;;;;;;;;;;4994661;28;20040;-75
2021/07/22 07:19:21;;;;;;;2.10;1.70;;;;;;;;;;4988287;28;20026;-77
2021/07/22 07:21:46;;;;;;;3.33;1.88;;;;;;;;;;5001422;28;20038;-77
2021/07/22 07:24:12;;;;;;;1.60;1.50;;;;;;;;;;4994165;28;20046;-77
2021/07/22 07:26:37;;;;;;;1.75;1.50;;;;;;;;;;5005530;28;20038;-77
2021/07/22 07:29:02;;;;;;;2.08;1.63;;;;;;;;;;4997569;28;20034;-77
2021/07/22 07:31:28;;;;;;;2.65;1.60;;;;;;;;;;5005534;28;20034;-77
2021/07/22 07:33:53;;;;;;;2.42;1.73;;;;;;;;;;4995019;28;20034;-78
2021/07/22 07:36:18;;;;;;;1.67;1.58;;;;;;;;;;4992992;28;20832;-77
2021/07/22 07:38:44;;;;;;;2.70;1.80;;;;;;;;;;4983387;28;20026;-77
2021/07/22 07:41:09;;;;;;;2.25;1.80;;;;;;;;;;4980614;28;20137;-77
2021/07/22 07:43:34;;;;;;;3.22;1.70;;;;;;;;;;4993519;28;20076;-77
2021/07/22 07:46:00;;;;;;;2.05;1.52;;;;;;;;;;4988325;28;21251;-77
2021/07/22 07:48:25;;;;;;;1.80;1.60;;;;;;;;;;4979111;28;20069;-77
2021/07/22 07:50:51;;;;;;;1.92;1.70;;;;;;;;;;4974719;28;20354;-77
2021/07/22 07:53:17;;;;;;;2.00;1.60;;;;;;;;;;4971475;28;20616;-77
2021/07/22 07:55:43;;;;;;;1.88;1.63;;;;;;;;;;4976009;28;20360;-77
2021/07/22 07:58:11;;;;;;;2.10;1.60;;;;;;;;;;5004858;28;20110;-77
2021/07/22 08:00:37;;;;;;;2.60;1.63;;;;;;;;;;5002434;28;20373;-77
2021/07/22 08:03:03;;;;;;;2.13;1.70;;;;;;;;;;5000622;28;20042;-78
2021/07/22 08:05:29;;;;;;;1.73;1.52;;;;;;;;;;5008934;28;20030;-78
2021/07/22 08:07:54;;;;;;;3.05;1.80;;;;;;;;;;4980686;28;20411;-79
2021/07/22 08:10:20;;;;;;;2.33;1.70;;;;;;;;;;4981168;28;20030;-77
2021/07/22 08:12:47;;;;;;;2.15;1.60;;;;;;;;;;4963602;28;20030;-78
2021/07/22 08:15:13;;;;;;;2.30;1.70;;;;;;;;;;4972293;28;20487;-79
2021/07/22 08:17:39;;;;;;;4.07;1.80;;;;;;;;;;4978951;28;20069;-78
2021/07/22 08:20:06;;;;;;;2.35;1.88;;;;;;;;;;4982512;28;20029;-78
2021/07/22 08:22:31;;;;;;;;;;;;;;;;;;4978948;28;20049;-78
2021/07/22 08:24:58;;;;;;;1.73;1.60;;;;;;;;;;4970407;28;20000;-77
2021/07/22 08:27:27;;;;;;;1.83;1.55;;;;;;;;;;4978604;28;20509;-78
2021/07/22 08:29:55;;;;;;;1.65;1.55;;;;;;;;;;4976828;28;20045;-78
2021/07/22 08:32:21;;;;;;;1.77;1.55;;;;;;;;;;4975760;28;20030;-79
2021/07/22 08:34:47;;;;;;;2.10;1.65;;;;;;;;;;4993921;28;20041;-79
2021/07/22 08:37:12;;;;;;;1.70;1.60;;;;;;;;;;4962432;28;20563;-78
2021/07/22 08:39:38;;;;;;;1.55;1.40;;;;;;;;;;4973894;28;20022;-79
2021/07/22 08:42:07;;;;;;;2.58;1.52;;;;;;;;;;4970789;28;20030;-78
2021/07/22 08:44:34;;;;;;;1.45;1.30;;;;;;;;;;4980070;28;20048;-78
2021/07/22 08:47:00;;;;;;;2.28;1.60;;;;;;;;;;4976731;28;20118;-77
2021/07/22 08:49:25;;;;;;;1.63;1.50;;;;;;;;;;4975979;28;20040;-79
2021/07/22 08:51:53;;;;;;;1.75;1.42;;;;;;;;;;4976558;28;20553;-79
2021/07/22 08:54:18;;;;;;;1.45;1.33;;;;;;;;;;4974836;28;20048;-78
2021/07/22 08:56:44;;;;;;;1.83;1.40;;;;;;;;;;4978170;28;21309;-78
2021/07/22 08:59:09;;;;;;;1.40;1.30;;;;;;;;;;4978868;28;20089;-77
2021/07/22 09:01:35;;;;;;;1.60;1.50;;;;;;;;;;4977438;28;20019;-76
2021/07/22 09:04:00;;;;;;;1.40;1.30;;;;;;;;;;4972864;28;20310;-78
2021/07/22 09:06:26;;;;;;;1.73;1.60;;;;;;;;;;4971991;28;20139;-77
2021/07/22 09:08:54;;;;;;;1.75;1.50;;;;;;;;;;4979106;28;21664;-77
2021/07/22 09:11:20;;;;;;;1.40;1.30;;;;;;;;;;4967382;28;20487;-78
2021/07/22 09:13:49;;;;;;;1.87;1.60;;;;;;;;;;4961807;28;20057;-78
2021/07/22 09:16:15;;;;;;;1.58;1.38;;;;;;;;;;4953738;28;20101;-79
2021/07/22 09:18:44;;;;;;;2.65;1.30;;;;;;;;;;4966407;28;20030;-77
2021/07/22 09:21:23;;;;;;;2.75;1.50;;;;;;;;;;4960978;28;20049;-78
2021/07/22 09:24:08;;;;;;;1.88;1.45;;;;;;;;;;4976465;28;20041;-78
2021/07/22 09:26:35;;;;;;;1.75;1.40;;;;;;;;;;4954764;28;20415;-77
2021/07/22 09:29:03;;;;;;;2.22;1.55;;;;;;;;;;4974378;28;20108;-77
2021/07/22 09:31:29;;;;;;;2.27;1.50;;;;;;;;;;4959309;28;20026;-79
2021/07/22 09:33:54;;;;;;;1.50;1.40;;;;;;;;;;4965675;28;20531;-78
2021/07/22 09:36:29;;;;;;;1.55;1.45;;;;;;;;;;4983329;28;20885;-77
2021/07/22 09:39:14;;;;;;;1.50;1.35;;;;;;;;;;4981122;28;20034;-78
2021/07/22 09:41:42;;;;;;;1.40;1.30;;;;;;;;;;4976016;28;20022;-78
2021/07/22 09:44:25;;;;;;;1.65;1.50;;;;;;;;;;4975113;28;20095;-78
2021/07/22 09:46:50;;;;;;;1.77;1.40;;;;;;;;;;4974981;28;20554;-76
2021/07/22 09:49:16;;;;;;;2.20;1.50;;;;;;;;;;4978997;28;20831;-78
2021/07/22 09:51:41;;;;;;;1.90;1.57;;;;;;;;;;4958733;28;20030;-77
2021/07/22 09:54:10;;;;;;;4.07;1.63;;;;;;;;;;4976634;28;20034;-77
2021/07/22 09:56:36;;;;;;;1.92;1.30;;;;;;;;;;4975658;28;20620;-78
2021/07/22 09:59:02;;;;;;;1.50;1.40;;;;;;;;;;4980239;28;20026;-78
2021/07/22 10:01:27;;;;;;;2.40;1.70;;;;;;;;;;4977027;28;20048;-78
2021/07/22 10:03:53;;;;;;;2.43;1.50;;;;;;;;;;4982054;28;20037;-78
2021/07/22 10:06:19;;;;;;;1.70;1.40;;;;;;;;;;4988529;28;20102;-78
2021/07/22 10:08:45;;;;;;;1.50;1.40;;;;;;;;;;4997972;28;20111;-78
2021/07/22 10:11:16;;;;;;;2.17;1.67;;;;;;;;;;4956549;28;20054;-77
2021/07/22 10:13:43;;;;;;;2.45;1.52;;;;;;;;;;4973467;28;20034;-77
2021/07/22 10:16:08;;;;;;;;;;;;;;;;;;4968120;28;20052;-78
2021/07/22 10:18:36;;;;;;;2.03;1.60;;;;;;;;;;4974689;28;19923;-78
2021/07/22 10:21:03;;;;;;;1.50;1.40;;;;;;;;;;4958565;28;20386;-78
2021/07/22 10:23:31;;;;;;;;;;;;;;;;;;4974899;28;20145;-77
2021/07/22 10:25:59;;;;;;;1.63;1.50;;;;;;;;;;4976083;28;19925;-78
2021/07/22 10:28:25;;;;;;;1.45;1.35;;;;;;;;;;4971878;28;20030;-77
2021/07/22 10:30:51;;;;;;;2.42;1.80;;;;;;;;;;4985088;28;20756;-77
2021/07/22 10:33:18;;;;;;;2.33;1.60;;;;;;;;;;4977150;28;20044;-76
2021/07/22 10:35:43;;;;;;;;;;;;;;;;;;4974948;28;24694;-77
2021/07/22 10:38:14;;;;;;;1.80;1.60;;;;;;;;;;4991837;28;19913;-77
2021/07/22 10:40:45;;;;;;;1.58;1.40;;;;;;;;;;5001129;28;20030;-77
2021/07/22 10:43:29;;;;;;;1.55;1.45;;;;;;;;;;4987096;28;20087;-77
2021/07/22 10:45:55;;;;;;;1.83;1.58;;;;;;;;;;4974122;28;20435;-77
2021/07/22 10:48:27;;;;;;;1.83;1.50;;;;;;;;;;4972602;28;20102;-78
2021/07/22 10:50:55;;;;;;;1.88;1.40;;;;;;;;;;4975592;28;20484;-78
2021/07/22 10:53:41;;;;;;;1.60;1.40;;;;;;;;;;4980278;28;20022;-77
2021/07/22 10:56:07;;;;;;;2.47;1.60;;;;;;;;;;4969326;28;20034;-79
2021/07/22 10:58:33;;;;;;;2.10;1.60;;;;;;;;;;4961690;28;20040;-78
2021/07/22 11:01:02;;;;;;;2.10;1.60;;;;;;;;;;4981361;28;20026;-79
2021/07/22 11:03:37;;;;;;;2.25;1.60;;;;;;;;;;4985243;28;20044;-79
2021/07/22 11:06:06;;;;;;;2.30;1.52;;;;;;;;;;4971183;28;20177;-78
2021/07/22 11:08:32;;;;;;;1.75;1.50;;;;;;;;;;4973371;28;20134;-79
2021/07/22 11:11:03;;;;;;;2.15;1.50;;;;;;;;;;4976539;28;20461;-80
2021/07/22 11:13:35;;;;;;;2.05;1.70;;;;;;;;;;5004754;28;20038;-78
2021/07/22 11:16:01;;;;;;;2.20;1.63;;;;;;;;;;4972860;28;20041;-79
2021/07/22 11:18:39;;;;;;;2.55;1.75;;;;;;;;;;4971638;28;20858;-79
2021/07/22 11:21:05;;;;;;;2.35;1.60;;;;;;;;;;4995008;28;20087;-79
2021/07/22 11:23:30;;;;;;;2.53;1.70;;;;;;;;;;4972385;28;20030;-78
2021/07/22 11:25:56;;;;;;;2.53;1.80;;;;;;;;;;4975318;28;20041;-78
2021/07/22 11:28:25;;;;;;;3.05;1.70;;;;;;;;;;4972546;28;20111;-78
2021/07/22 11:31:02;;;;;;;2.40;1.67;;;;;;;;;;4978464;28;20103;-79
2021/07/22 11:33:31;;;;;;;2.42;1.67;;;;;;;;;;4978453;28;20038;-74
2021/07/22 11:36:06;;;;;;;2.22;1.70;;;;;;;;;;4974879;28;20069;-76
2021/07/22 11:38:34;;;;;;;4.22;1.77;;;;;;;;;;4981840;28;24523;-77
2021/07/22 11:41:09;;;;;;;2.33;1.63;;;;;;;;;;4957110;28;20022;-77
2021/07/22 11:43:54;;;;;;;2.95;1.60;;;;;;;;;;4973603;28;20028;-77
2021/07/22 11:46:40;;;;;;;2.08;1.55;;;;;;;;;;4967650;28;20137;-76
2021/07/22 11:49:05;;;;;;;;;;;;;;;;;;4983476;28;20043;-77
2021/07/22 11:51:34;;;;;;;1.60;1.50;;;;;;;;;;4972593;28;20023;-76
2021/07/22 11:54:00;;;;;;;2.17;1.50;;;;;;;;;;4956737;28;20034;-77
2021/07/22 11:56:29;;;;;;;2.08;1.50;;;;;;;;;;4959093;28;20031;-78
2021/07/22 11:58:54;;;;;;;1.83;1.52;;;;;;;;;;4974178;28;20155;-78
2021/07/22 12:01:20;;;;;;;4.00;1.70;;;;;;;;;;4975786;28;20038;-78
2021/07/22 12:03:48;;;;;;;2.17;1.50;;;;;;;;;;4978964;28;20314;-78
2021/07/22 12:06:14;;;;;;;3.45;1.70;;;;;;;;;;4961286;28;20259;-77
2021/07/22 12:08:39;;;;;;;;;;;;;;;;;;4973543;28;20038;-77
2021/07/22 12:11:05;;;;;;;1.70;1.52;;;;;;;;;;4966941;28;19920;-77
2021/07/22 12:13:52;;;;;;;1.60;1.50;;;;;;;;;;4951787;28;20140;-77
2021/07/22 12:16:27;;;;;;;2.83;1.75;;;;;;;;;;4965905;28;20045;-78
2021/07/22 12:18:53;;;;;;;1.80;1.40;;;;;;;;;;5001551;28;20101;-78
2021/07/22 12:21:19;;;;;;;1.58;1.48;;;;;;;;;;4989238;28;20170;-77
2021/07/22 12:23:50;;;;;;;2.15;1.50;;;;;;;;;;5006693;28;20037;-77
2021/07/22 12:26:18;;;;;;;1.90;1.40;;;;;;;;;;5013838;28;20073;-76
2021/07/22 12:28:45;;;;;;;3.65;1.60;;;;;;;;;;5001659;28;20026;-76
2021/07/22 12:31:21;;;;;;;1.75;1.48;;;;;;;;;;4998215;28;20042;-76
2021/07/22 12:34:15;;;;;;;1.60;1.50;;;;;;;;;;4998905;28;20037;-76
2021/07/22 12:36:49;;;;;;;2.50;1.50;;;;;;;;;;4982114;28;20030;-76
2021/07/22 12:39:14;;;;;;;2.13;1.45;;;;;;;;;;4995410;28;20034;-77
2021/07/22 12:41:39;;;;;;;;;;;;;;;;;;4997526;28;20026;-77
2021/07/22 12:44:05;;;;;;;1.70;1.47;;;;;;;;;;5009052;28;19901;-77
2021/07/22 12:46:31;;;;;;;1.58;1.48;;;;;;;;;;5008166;28;20361;-75
2021/07/22 12:48:57;;;;;;;2.00;1.50;;;;;;;;;;4991206;28;20026;-76
2021/07/22 12:51:23;;;;;;;2.03;1.50;;;;;;;;;;5007082;28;20479;-76
2021/07/22 12:53:48;;;;;;;1.75;1.48;;;;;;;;;;5013797;28;20105;-76
2021/07/22 12:56:14;;;;;;;1.40;1.30;;;;;;;;;;4992406;28;20034;-75
2021/07/22 12:58:47;;;;;;;3.20;1.42;;;;;;;;;;5008050;28;20029;-77
2021/07/22 13:01:13;;;;;;;1.83;1.42;;;;;;;;;;4982190;28;20034;-76
2021/07/22 13:03:40;;;;;;;2.85;1.55;;;;;;;;;;5007802;28;20072;-75
2021/07/22 13:06:05;;;;;;;2.53;1.50;;;;;;;;;;5004949;28;20029;-76
2021/07/22 13:08:31;;;;;;;1.60;1.50;;;;;;;;;;4999207;28;20029;-75
2021/07/22 13:10:56;;;;;;;2.35;1.70;;;;;;;;;;4998866;28;20041;-76
2021/07/22 13:13:22;;;;;;;1.85;1.60;;;;;;;;;;4989847;28;20096;-76
2021/07/22 13:15:48;;;;;;;1.77;1.50;;;;;;;;;;5001905;28;20038;-76
2021/07/22 13:18:13;;;;;;;;;;;;;;;;;;4997890;28;20037;-76
2021/07/22 13:20:39;;;;;;;1.57;1.47;;;;;;;;;;4981627;28;19963;-76
2021/07/22 13:23:04;;;;;;;2.35;1.80;;;;;;;;;;4996820;28;20507;-75
2021/07/22 13:25:32;;;;;;;2.67;1.80;;;;;;;;;;4988125;28;20507;-77
2021/07/22 13:27:59;;;;;;;1.70;1.52;;;;;;;;;;5001683;28;20287;-76
2021/07/22 13:30:25;;;;;;;2.20;1.80;;;;;;;;;;5002400;28;20022;-77
2021/07/22 13:32:50;;;;;;;2.80;1.70;;;;;;;;;;4996599;28;20032;-77
2021/07/22 13:35:16;;;;;;;2.60;1.90;;;;;;;;;;4999396;28;20339;-75
2021/07/22 13:37:42;;;;;;;2.77;1.73;;;;;;;;;;5006266;28;20083;-75
2021/07/22 13:40:09;;;;;;;2.05;1.70;;;;;;;;;;4987592;28;20345;-76
2021/07/22 13:42:35;;;;;;;2.72;1.70;;;;;;;;;;4994879;28;20125;-75
2021/07/22 13:45:00;;;;;;;2.25;1.50;;;;;;;;;;5001293;28;20104;-77
2021/07/22 13:47:25;;;;;;;;;;;;;;;;;;4998799;28;20064;-77
2021/07/22 13:49:51;;;;;;;;;;;;;;;;;;5005432;28;19921;-76
2021/07/22 13:52:16;;;;;;;1.73;1.50;;;;;;;;;;5005600;28;19951;-76
2021/07/22 13:54:41;;;;;;;;;;;;;;;;;;4986891;28;20428;-76
2021/07/22 13:57:07;;;;;;;2.07;1.60;;;;;;;;;;4993317;28;20483;-76
2021/07/22 13:59:32;;;;;;;1.73;1.50;;;;;;;;;;4997611;28;20034;-76
2021/07/22 14:01:58;;;;;;;2.85;1.70;;;;;;;;;;5007727;28;20041;-76
2021/07/22 14:04:23;;;;;;;1.90;1.50;;;;;;;;;;5005224;28;20038;-76
2021/07/22 14:06:48;;;;;;;;;;;;;;;;;;4999198;28;20037;-76
2021/07/22 14:09:13;;;;;;;;;;;;;;;;;;4986148;28;19920;-76
2021/07/22 14:11:39;;;;;;;2.40;1.60;;;;;;;;;;4996010;28;19921;-76
2021/07/22 14:14:04;;;;;;;1.92;1.50;;;;;;;;;;5006094;28;20034;-76
2021/07/22 14:16:30;;;;;;;;;;;;;;;;;;5000244;28;20018;-76
2021/07/22 14:18:55;;;;;;;2.77;1.60;;;;;;;;;;5000755;28;20387;-76
2021/07/22 14:21:20;;;;;;;2.67;1.80;;;;;;;;;;5004524;28;20033;-76
2021/07/22 14:23:46;;;;;;;2.28;1.70;;;;;;;;;;5005359;28;20349;-76
2021/07/22 14:26:12;;;;;;;2.33;1.70;;;;;;;;;;5003299;28;20086;-76
2021/07/22 14:28:37;;;;;;;;;;;;;;;;;;4978271;28;20432;-75
2021/07/22 14:31:03;;;;;;;2.17;1.70;;;;;;;;;;4998315;28;20333;-76
2021/07/22 14:33:28;;;;;;;3.03;1.80;;;;;;;;;;4987652;28;20666;-76
2021/07/22 14:35:54;;;;;;;2.33;1.77;;;;;;;;;;4997882;28;20113;-77
2021/07/22 14:38:19;;;;;;;2.35;1.70;;;;;;;;;;4995020;28;20347;-76
2021/07/22 14:40:44;;;;;;;;;;;;;;;;;;4995076;28;20393;-75
2021/07/22 14:43:10;;;;;;;1.80;1.60;;;;;;;;;;5004798;28;19920;-76
2021/07/22 14:45:35;;;;;;;;;;;;;;;;;;4996252;28;20411;-75
2021/07/22 14:48:00;;;;;;;;;;;;;;;;;;4999335;28;20027;-76
2021/07/22 14:50:31;;;;;;;3.50;1.90;;;;;;;;;;5005311;28;19941;-76
2021/07/22 14:52:58;;;;;;;2.03;1.73;;;;;;;;;;5004687;28;20062;-75
2021/07/22 14:55:23;;;;;;;2.97;1.80;;;;;;;;;;4996058;28;20066;-75
2021/07/22 14:57:54;;;;;;;2.43;1.73;;;;;;;;;;4988899;28;20893;-76
2021/07/22 15:00:19;;;;;;;1.98;1.77;;;;;;;;;;5005424;28;20071;-77